sensor_id;sensor_type;location;lat;lon;timestamp;temperature;humidity
37782;DHT22;23621;50.878;4.584;2023-05-09T00:00:22;22.70;73.10
37782;DHT22;23621;50.878;4.584;2023-05-09T00:03:09;22.60;73.00
37782;DHT22;23621;50.878;4.584;2023-05-09T00:05:58;22.60;73.10
37782;DHT22;23621;50.878;4.584;2023-05-09T00:08:45;22.60;73.10
37782;DHT22;23621;50.878;4.584;2023-05-09T00:11:33;22.60;73.10
37782;DHT22;23621;50.878;4.584;2023-05-09T00:14:20;22.60;73.10
37782;DHT22;23621;50.878;4.584;2023-05-09T00:17:07;22.60;73.10
37782;DHT22;23621;50.878;4.584;2023-05-09T00:19:55;22.50;73.00
37782;DHT22;23621;50.878;4.584;2023-05-09T00:22:42;22.50;73.00
37782;DHT22;23621;50.878;4.584;2023-05-09T00:25:30;22.50;73.00
37782;DHT22;23621;50.878;4.584;2023-05-09T00:28:17;22.50;73.10
37782;DHT22;23621;50.878;4.584;2023-05-09T00:31:06;22.50;73.10
37782;DHT22;23621;50.878;4.584;2023-05-09T00:33:53;22.50;73.10
37782;DHT22;23621;50.878;4.584;2023-05-09T00:36:40;22.50;73.00
37782;DHT22;23621;50.878;4.584;2023-05-09T00:39:28;22.50;73.00
37782;DHT22;23621;50.878;4.584;2023-05-09T00:42:15;22.50;73.10
37782;DHT22;23621;50.878;4.584;2023-05-09T00:45:02;22.40;72.90
37782;DHT22;23621;50.878;4.584;2023-05-09T00:47:50;22.40;73.00
37782;DHT22;23621;50.878;4.584;2023-05-09T00:50:37;22.40;73.00
37782;DHT22;23621;50.878;4.584;2023-05-09T00:53:25;22.40;72.90
37782;DHT22;23621;50.878;4.584;2023-05-09T00:56:14;22.40;73.10
37782;DHT22;23621;50.878;4.584;2023-05-09T00:59:01;22.40;72.90
37782;DHT22;23621;50.878;4.584;2023-05-09T01:01:49;22.30;72.80
37782;DHT22;23621;50.878;4.584;2023-05-09T01:04:36;22.30;72.70
37782;DHT22;23621;50.878;4.584;2023-05-09T01:07:57;22.30;72.70
37782;DHT22;23621;50.878;4.584;2023-05-09T01:16:42;22.30;73.10
37782;DHT22;23621;50.878;4.584;2023-05-09T01:22:33;22.20;73.00
37782;DHT22;23621;50.878;4.584;2023-05-09T01:25:32;22.20;73.00
37782;DHT22;23621;50.878;4.584;2023-05-09T01:28:45;22.20;73.00
37782;DHT22;23621;50.878;4.584;2023-05-09T01:31:43;22.20;73.00
37782;DHT22;23621;50.878;4.584;2023-05-09T01:34:31;22.20;73.00
37782;DHT22;23621;50.878;4.584;2023-05-09T01:37:26;22.20;73.10
37782;DHT22;23621;50.878;4.584;2023-05-09T01:40:17;22.20;73.20
37782;DHT22;23621;50.878;4.584;2023-05-09T01:43:09;22.20;73.20
37782;DHT22;23621;50.878;4.584;2023-05-09T01:45:57;22.20;73.10
37782;DHT22;23621;50.878;4.584;2023-05-09T01:48:45;22.20;73.10
37782;DHT22;23621;50.878;4.584;2023-05-09T01:51:35;22.20;73.20
37782;DHT22;23621;50.878;4.584;2023-05-09T01:54:23;22.20;73.10
37782;DHT22;23621;50.878;4.584;2023-05-09T01:57:13;22.20;73.10
37782;DHT22;23621;50.878;4.584;2023-05-09T02:00:02;22.20;73.00
37782;DHT22;23621;50.878;4.584;2023-05-09T02:02:51;22.10;72.90
37782;DHT22;23621;50.878;4.584;2023-05-09T02:05:40;22.20;73.10
37782;DHT22;23621;50.878;4.584;2023-05-09T02:08:28;22.10;73.10
37782;DHT22;23621;50.878;4.584;2023-05-09T02:11:15;22.10;73.00
37782;DHT22;23621;50.878;4.584;2023-05-09T02:14:02;22.10;73.00
37782;DHT22;23621;50.878;4.584;2023-05-09T02:16:50;22.10;73.10
37782;DHT22;23621;50.878;4.584;2023-05-09T02:19:37;22.10;73.10
37782;DHT22;23621;50.878;4.584;2023-05-09T02:22:24;22.10;73.10
37782;DHT22;23621;50.878;4.584;2023-05-09T02:25:12;22.10;73.10
37782;DHT22;23621;50.878;4.584;2023-05-09T02:28:03;22.10;73.10
37782;DHT22;23621;50.878;4.584;2023-05-09T02:30:51;22.10;73.10
37782;DHT22;23621;50.878;4.584;2023-05-09T02:33:40;22.10;73.10
37782;DHT22;23621;50.878;4.584;2023-05-09T02:36:29;22.10;73.20
37782;DHT22;23621;50.878;4.584;2023-05-09T02:39:17;22.00;73.10
37782;DHT22;23621;50.878;4.584;2023-05-09T02:42:09;22.00;73.10
37782;DHT22;23621;50.878;4.584;2023-05-09T02:44:56;22.00;73.20
37782;DHT22;23621;50.878;4.584;2023-05-09T02:47:43;22.00;73.20
37782;DHT22;23621;50.878;4.584;2023-05-09T02:50:31;22.00;73.20
37782;DHT22;23621;50.878;4.584;2023-05-09T02:53:18;21.90;73.20
37782;DHT22;23621;50.878;4.584;2023-05-09T02:56:05;21.90;73.10
37782;DHT22;23621;50.878;4.584;2023-05-09T02:58:52;22.00;73.20
37782;DHT22;23621;50.878;4.584;2023-05-09T03:01:40;21.90;73.20
37782;DHT22;23621;50.878;4.584;2023-05-09T03:04:27;21.90;73.20
37782;DHT22;23621;50.878;4.584;2023-05-09T03:07:14;21.90;73.20
37782;DHT22;23621;50.878;4.584;2023-05-09T03:10:02;21.90;73.30
37782;DHT22;23621;50.878;4.584;2023-05-09T03:12:49;21.90;73.40
37782;DHT22;23621;50.878;4.584;2023-05-09T03:15:36;21.90;73.30
37782;DHT22;23621;50.878;4.584;2023-05-09T03:18:24;21.90;73.30
37782;DHT22;23621;50.878;4.584;2023-05-09T03:21:11;21.90;73.30
37782;DHT22;23621;50.878;4.584;2023-05-09T03:23:58;21.90;73.40
37782;DHT22;23621;50.878;4.584;2023-05-09T03:26:46;21.90;73.50
37782;DHT22;23621;50.878;4.584;2023-05-09T03:29:33;21.90;73.60
37782;DHT22;23621;50.878;4.584;2023-05-09T03:32:20;21.90;73.70
37782;DHT22;23621;50.878;4.584;2023-05-09T03:35:07;21.90;73.70
37782;DHT22;23621;50.878;4.584;2023-05-09T03:37:55;21.90;73.80
37782;DHT22;23621;50.878;4.584;2023-05-09T03:40:42;21.80;73.60
37782;DHT22;23621;50.878;4.584;2023-05-09T03:43:29;21.80;73.50
37782;DHT22;23621;50.878;4.584;2023-05-09T03:46:16;21.80;73.50
37782;DHT22;23621;50.878;4.584;2023-05-09T03:49:04;21.80;73.70
37782;DHT22;23621;50.878;4.584;2023-05-09T03:51:51;21.80;73.70
37782;DHT22;23621;50.878;4.584;2023-05-09T03:54:38;21.90;73.80
37782;DHT22;23621;50.878;4.584;2023-05-09T03:57:25;21.90;73.90
37782;DHT22;23621;50.878;4.584;2023-05-09T04:00:13;21.90;73.70
37782;DHT22;23621;50.878;4.584;2023-05-09T04:03:00;21.80;73.60
37782;DHT22;23621;50.878;4.584;2023-05-09T04:05:48;21.90;73.70
37782;DHT22;23621;50.878;4.584;2023-05-09T04:08:35;21.90;73.60
37782;DHT22;23621;50.878;4.584;2023-05-09T04:11:22;21.90;73.60
37782;DHT22;23621;50.878;4.584;2023-05-09T04:14:10;21.90;73.50
37782;DHT22;23621;50.878;4.584;2023-05-09T04:16:57;21.90;73.50
37782;DHT22;23621;50.878;4.584;2023-05-09T04:19:44;21.90;73.70
37782;DHT22;23621;50.878;4.584;2023-05-09T04:22:31;21.90;73.80
37782;DHT22;23621;50.878;4.584;2023-05-09T04:25:18;21.90;74.00
37782;DHT22;23621;50.878;4.584;2023-05-09T04:28:06;21.90;74.20
37782;DHT22;23621;50.878;4.584;2023-05-09T04:30:54;22.00;74.40
37782;DHT22;23621;50.878;4.584;2023-05-09T04:33:42;22.00;74.50
37782;DHT22;23621;50.878;4.584;2023-05-09T04:36:29;22.00;74.60
37782;DHT22;23621;50.878;4.584;2023-05-09T04:39:17;22.00;74.70
37782;DHT22;23621;50.878;4.584;2023-05-09T04:42:05;22.00;74.80
37782;DHT22;23621;50.878;4.584;2023-05-09T04:44:52;22.00;74.90
37782;DHT22;23621;50.878;4.584;2023-05-09T04:47:39;22.00;75.00
37782;DHT22;23621;50.878;4.584;2023-05-09T04:50:27;22.00;75.00
37782;DHT22;23621;50.878;4.584;2023-05-09T04:53:14;22.00;75.10
37782;DHT22;23621;50.878;4.584;2023-05-09T04:56:01;22.00;75.10
37782;DHT22;23621;50.878;4.584;2023-05-09T04:58:49;22.00;75.20
37782;DHT22;23621;50.878;4.584;2023-05-09T05:01:36;22.00;75.30
37782;DHT22;23621;50.878;4.584;2023-05-09T05:04:23;22.00;75.40
37782;DHT22;23621;50.878;4.584;2023-05-09T05:07:10;22.00;75.50
37782;DHT22;23621;50.878;4.584;2023-05-09T05:09:58;22.00;75.70
37782;DHT22;23621;50.878;4.584;2023-05-09T05:12:45;22.00;75.70
37782;DHT22;23621;50.878;4.584;2023-05-09T05:15:32;22.00;75.90
37782;DHT22;23621;50.878;4.584;2023-05-09T05:18:20;21.90;75.90
37782;DHT22;23621;50.878;4.584;2023-05-09T05:21:07;21.90;75.90
37782;DHT22;23621;50.878;4.584;2023-05-09T05:23:54;21.90;76.00
37782;DHT22;23621;50.878;4.584;2023-05-09T05:26:42;21.90;76.10
37782;DHT22;23621;50.878;4.584;2023-05-09T05:29:29;21.90;76.20
37782;DHT22;23621;50.878;4.584;2023-05-09T05:32:16;21.90;76.30
37782;DHT22;23621;50.878;4.584;2023-05-09T05:35:04;21.90;76.50
37782;DHT22;23621;50.878;4.584;2023-05-09T05:37:52;21.90;76.60
37782;DHT22;23621;50.878;4.584;2023-05-09T05:40:39;21.90;76.70
37782;DHT22;23621;50.878;4.584;2023-05-09T05:43:26;21.80;76.70
37782;DHT22;23621;50.878;4.584;2023-05-09T05:46:13;21.80;76.90
37782;DHT22;23621;50.878;4.584;2023-05-09T05:49:01;21.70;77.10
37782;DHT22;23621;50.878;4.584;2023-05-09T05:51:48;21.70;77.20
37782;DHT22;23621;50.878;4.584;2023-05-09T05:54:35;21.80;77.40
37782;DHT22;23621;50.878;4.584;2023-05-09T05:57:23;21.80;77.40
37782;DHT22;23621;50.878;4.584;2023-05-09T06:00:10;21.90;77.50
37782;DHT22;23621;50.878;4.584;2023-05-09T06:02:58;21.90;77.50
37782;DHT22;23621;50.878;4.584;2023-05-09T06:05:46;21.90;77.50
37782;DHT22;23621;50.878;4.584;2023-05-09T06:08:34;22.00;77.60
37782;DHT22;23621;50.878;4.584;2023-05-09T06:11:22;22.00;77.60
37782;DHT22;23621;50.878;4.584;2023-05-09T06:14:09;22.00;77.50
37782;DHT22;23621;50.878;4.584;2023-05-09T06:16:57;22.00;77.60
37782;DHT22;23621;50.878;4.584;2023-05-09T06:19:45;22.10;77.80
37782;DHT22;23621;50.878;4.584;2023-05-09T06:22:32;22.10;77.70
37782;DHT22;23621;50.878;4.584;2023-05-09T06:25:19;22.10;77.80
37782;DHT22;23621;50.878;4.584;2023-05-09T06:28:06;22.10;77.80
37782;DHT22;23621;50.878;4.584;2023-05-09T06:30:54;22.20;77.90
37782;DHT22;23621;50.878;4.584;2023-05-09T06:33:41;22.20;78.00
37782;DHT22;23621;50.878;4.584;2023-05-09T06:36:28;22.20;78.00
37782;DHT22;23621;50.878;4.584;2023-05-09T06:39:15;22.30;78.20
37782;DHT22;23621;50.878;4.584;2023-05-09T06:42:02;22.30;78.20
37782;DHT22;23621;50.878;4.584;2023-05-09T06:44:50;22.40;78.40
37782;DHT22;23621;50.878;4.584;2023-05-09T06:47:37;22.40;78.40
37782;DHT22;23621;50.878;4.584;2023-05-09T06:50:24;22.40;78.40
37782;DHT22;23621;50.878;4.584;2023-05-09T06:53:11;22.50;78.60
37782;DHT22;23621;50.878;4.584;2023-05-09T06:55:59;22.50;78.60
37782;DHT22;23621;50.878;4.584;2023-05-09T06:58:46;22.50;78.60
37782;DHT22;23621;50.878;4.584;2023-05-09T07:01:33;22.50;78.60
37782;DHT22;23621;50.878;4.584;2023-05-09T07:04:21;22.60;78.70
37782;DHT22;23621;50.878;4.584;2023-05-09T07:07:08;22.50;78.60
37782;DHT22;23621;50.878;4.584;2023-05-09T07:09:55;22.60;78.80
37782;DHT22;23621;50.878;4.584;2023-05-09T07:12:56;22.60;78.80
37782;DHT22;23621;50.878;4.584;2023-05-09T07:15:44;22.60;78.80
37782;DHT22;23621;50.878;4.584;2023-05-09T07:18:31;22.60;78.80
37782;DHT22;23621;50.878;4.584;2023-05-09T07:21:18;22.60;78.90
37782;DHT22;23621;50.878;4.584;2023-05-09T07:24:06;22.60;78.90
37782;DHT22;23621;50.878;4.584;2023-05-09T07:26:53;22.60;79.00
37782;DHT22;23621;50.878;4.584;2023-05-09T07:29:40;22.60;79.00
37782;DHT22;23621;50.878;4.584;2023-05-09T07:32:27;22.60;79.10
37782;DHT22;23621;50.878;4.584;2023-05-09T07:35:14;22.60;79.00
37782;DHT22;23621;50.878;4.584;2023-05-09T07:38:02;22.60;79.00
37782;DHT22;23621;50.878;4.584;2023-05-09T07:40:52;22.60;79.00
37782;DHT22;23621;50.878;4.584;2023-05-09T07:43:39;22.60;79.00
37782;DHT22;23621;50.878;4.584;2023-05-09T07:46:26;22.60;78.90
37782;DHT22;23621;50.878;4.584;2023-05-09T07:49:14;22.60;79.00
37782;DHT22;23621;50.878;4.584;2023-05-09T07:52:01;22.60;79.00
37782;DHT22;23621;50.878;4.584;2023-05-09T07:54:48;22.60;79.00
37782;DHT22;23621;50.878;4.584;2023-05-09T07:57:35;22.60;78.90
37782;DHT22;23621;50.878;4.584;2023-05-09T08:00:23;22.60;78.90
37782;DHT22;23621;50.878;4.584;2023-05-09T08:03:10;22.60;78.90
37782;DHT22;23621;50.878;4.584;2023-05-09T08:05:58;22.50;78.80
37782;DHT22;23621;50.878;4.584;2023-05-09T08:08:45;22.50;78.90
37782;DHT22;23621;50.878;4.584;2023-05-09T08:11:33;22.50;78.80
37782;DHT22;23621;50.878;4.584;2023-05-09T08:14:21;22.60;79.00
37782;DHT22;23621;50.878;4.584;2023-05-09T08:17:09;22.60;78.90
37782;DHT22;23621;50.878;4.584;2023-05-09T08:19:56;22.70;79.00
37782;DHT22;23621;50.878;4.584;2023-05-09T08:22:43;22.70;79.00
37782;DHT22;23621;50.878;4.584;2023-05-09T08:25:30;22.70;79.00
37782;DHT22;23621;50.878;4.584;2023-05-09T08:28:18;22.70;79.10
37782;DHT22;23621;50.878;4.584;2023-05-09T08:31:05;22.70;79.00
37782;DHT22;23621;50.878;4.584;2023-05-09T08:33:52;22.70;79.20
37782;DHT22;23621;50.878;4.584;2023-05-09T08:36:39;22.70;79.20
37782;DHT22;23621;50.878;4.584;2023-05-09T08:39:27;22.70;79.20
37782;DHT22;23621;50.878;4.584;2023-05-09T08:42:15;22.80;79.30
37782;DHT22;23621;50.878;4.584;2023-05-09T08:45:09;22.80;79.40
37782;DHT22;23621;50.878;4.584;2023-05-09T08:47:57;22.80;79.50
37782;DHT22;23621;50.878;4.584;2023-05-09T08:50:46;22.80;79.50
37782;DHT22;23621;50.878;4.584;2023-05-09T08:53:35;22.90;79.60
37782;DHT22;23621;50.878;4.584;2023-05-09T08:56:23;22.90;79.50
37782;DHT22;23621;50.878;4.584;2023-05-09T08:59:12;22.90;79.50
37782;DHT22;23621;50.878;4.584;2023-05-09T09:02:00;22.90;79.50
37782;DHT22;23621;50.878;4.584;2023-05-09T09:04:50;22.90;79.50
37782;DHT22;23621;50.878;4.584;2023-05-09T09:07:39;22.90;79.40
37782;DHT22;23621;50.878;4.584;2023-05-09T09:10:29;22.90;79.50
37782;DHT22;23621;50.878;4.584;2023-05-09T09:13:18;22.90;79.40
37782;DHT22;23621;50.878;4.584;2023-05-09T09:16:08;22.90;79.40
37782;DHT22;23621;50.878;4.584;2023-05-09T09:18:57;22.90;79.50
37782;DHT22;23621;50.878;4.584;2023-05-09T09:21:47;22.80;79.40
37782;DHT22;23621;50.878;4.584;2023-05-09T09:24:37;22.80;79.30
37782;DHT22;23621;50.878;4.584;2023-05-09T09:27:24;22.80;79.20
37782;DHT22;23621;50.878;4.584;2023-05-09T09:30:12;22.80;79.20
37782;DHT22;23621;50.878;4.584;2023-05-09T09:32:59;22.80;79.30
37782;DHT22;23621;50.878;4.584;2023-05-09T09:35:51;22.80;79.10
37782;DHT22;23621;50.878;4.584;2023-05-09T09:38:40;22.80;78.70
37782;DHT22;23621;50.878;4.584;2023-05-09T09:41:33;22.80;78.90
37782;DHT22;23621;50.878;4.584;2023-05-09T09:44:21;22.80;78.80
37782;DHT22;23621;50.878;4.584;2023-05-09T09:47:09;22.80;78.60
37782;DHT22;23621;50.878;4.584;2023-05-09T09:49:57;22.80;78.40
37782;DHT22;23621;50.878;4.584;2023-05-09T09:52:51;22.70;78.60
37782;DHT22;23621;50.878;4.584;2023-05-09T09:55:50;22.70;78.60
37782;DHT22;23621;50.878;4.584;2023-05-09T09:58:39;22.60;78.60
37782;DHT22;23621;50.878;4.584;2023-05-09T10:01:26;22.60;78.60
37782;DHT22;23621;50.878;4.584;2023-05-09T10:04:16;22.60;78.60
37782;DHT22;23621;50.878;4.584;2023-05-09T10:07:05;22.60;78.50
37782;DHT22;23621;50.878;4.584;2023-05-09T10:09:53;22.60;78.60
37782;DHT22;23621;50.878;4.584;2023-05-09T10:12:42;22.60;78.50
37782;DHT22;23621;50.878;4.584;2023-05-09T10:15:30;22.70;78.70
37782;DHT22;23621;50.878;4.584;2023-05-09T10:18:32;22.70;78.70
37782;DHT22;23621;50.878;4.584;2023-05-09T10:21:20;22.70;78.90
37782;DHT22;23621;50.878;4.584;2023-05-09T10:24:08;22.80;79.00
37782;DHT22;23621;50.878;4.584;2023-05-09T10:27:01;22.80;79.00
37782;DHT22;23621;50.878;4.584;2023-05-09T10:30:07;22.80;78.90
37782;DHT22;23621;50.878;4.584;2023-05-09T10:33:01;22.90;79.00
37782;DHT22;23621;50.878;4.584;2023-05-09T10:35:49;22.90;78.90
37782;DHT22;23621;50.878;4.584;2023-05-09T10:38:38;22.90;78.90
37782;DHT22;23621;50.878;4.584;2023-05-09T10:41:25;22.90;78.80
37782;DHT22;23621;50.878;4.584;2023-05-09T10:44:13;22.90;78.90
37782;DHT22;23621;50.878;4.584;2023-05-09T10:47:01;22.90;79.00
37782;DHT22;23621;50.878;4.584;2023-05-09T10:49:49;22.90;79.20
37782;DHT22;23621;50.878;4.584;2023-05-09T10:55:55;22.90;79.30
37782;DHT22;23621;50.878;4.584;2023-05-09T10:58:46;22.90;79.30
37782;DHT22;23621;50.878;4.584;2023-05-09T11:01:35;22.90;79.40
37782;DHT22;23621;50.878;4.584;2023-05-09T11:04:24;22.90;79.40
37782;DHT22;23621;50.878;4.584;2023-05-09T11:07:25;22.90;79.40
37782;DHT22;23621;50.878;4.584;2023-05-09T11:10:17;22.90;79.50
37782;DHT22;23621;50.878;4.584;2023-05-09T11:13:04;22.90;79.50
37782;DHT22;23621;50.878;4.584;2023-05-09T11:16:10;22.90;79.50
37782;DHT22;23621;50.878;4.584;2023-05-09T11:18:58;22.90;79.60
37782;DHT22;23621;50.878;4.584;2023-05-09T11:22:01;22.90;79.60
37782;DHT22;23621;50.878;4.584;2023-05-09T11:25:02;23.00;79.70
37782;DHT22;23621;50.878;4.584;2023-05-09T11:27:50;23.00;79.70
37782;DHT22;23621;50.878;4.584;2023-05-09T11:30:40;23.00;79.60
37782;DHT22;23621;50.878;4.584;2023-05-09T11:33:28;23.00;79.70
37782;DHT22;23621;50.878;4.584;2023-05-09T11:36:20;23.00;79.70
37782;DHT22;23621;50.878;4.584;2023-05-09T11:39:23;23.00;79.80
37782;DHT22;23621;50.878;4.584;2023-05-09T11:42:11;23.00;79.80
37782;DHT22;23621;50.878;4.584;2023-05-09T11:44:58;23.00;79.80
37782;DHT22;23621;50.878;4.584;2023-05-09T11:47:47;23.00;79.80
37782;DHT22;23621;50.878;4.584;2023-05-09T11:50:34;23.00;79.80
37782;DHT22;23621;50.878;4.584;2023-05-09T11:53:22;23.00;79.80
37782;DHT22;23621;50.878;4.584;2023-05-09T11:56:09;23.00;79.80
37782;DHT22;23621;50.878;4.584;2023-05-09T11:58:57;23.00;79.90
37782;DHT22;23621;50.878;4.584;2023-05-09T12:01:45;23.00;79.80
37782;DHT22;23621;50.878;4.584;2023-05-09T12:04:32;23.00;79.30
37782;DHT22;23621;50.878;4.584;2023-05-09T12:07:20;23.00;79.60
37782;DHT22;23621;50.878;4.584;2023-05-09T12:10:13;22.90;79.80
37782;DHT22;23621;50.878;4.584;2023-05-09T12:13:01;22.80;79.60
37782;DHT22;23621;50.878;4.584;2023-05-09T12:15:48;22.70;79.70
37782;DHT22;23621;50.878;4.584;2023-05-09T12:18:36;22.60;79.80
37782;DHT22;23621;50.878;4.584;2023-05-09T12:21:23;22.70;80.00
37782;DHT22;23621;50.878;4.584;2023-05-09T12:24:11;22.80;80.00
37782;DHT22;23621;50.878;4.584;2023-05-09T12:26:58;22.80;80.00
37782;DHT22;23621;50.878;4.584;2023-05-09T12:29:46;22.80;79.90
37782;DHT22;23621;50.878;4.584;2023-05-09T12:32:35;22.80;79.80
37782;DHT22;23621;50.878;4.584;2023-05-09T12:35:22;22.80;79.70
37782;DHT22;23621;50.878;4.584;2023-05-09T12:38:13;22.60;79.60
37782;DHT22;23621;50.878;4.584;2023-05-09T12:41:06;22.50;79.70
37782;DHT22;23621;50.878;4.584;2023-05-09T12:44:08;22.40;79.70
37782;DHT22;23621;50.878;4.584;2023-05-09T12:46:58;22.40;79.70
37782;DHT22;23621;50.878;4.584;2023-05-09T12:49:48;22.40;79.60
37782;DHT22;23621;50.878;4.584;2023-05-09T12:52:39;22.40;79.50
37782;DHT22;23621;50.878;4.584;2023-05-09T12:55:44;22.30;79.30
37782;DHT22;23621;50.878;4.584;2023-05-09T12:58:32;22.30;79.30
37782;DHT22;23621;50.878;4.584;2023-05-09T13:01:22;22.30;79.40
37782;DHT22;23621;50.878;4.584;2023-05-09T13:04:13;22.30;79.50
37782;DHT22;23621;50.878;4.584;2023-05-09T13:07:06;22.40;79.40
37782;DHT22;23621;50.878;4.584;2023-05-09T13:09:54;22.50;79.30
37782;DHT22;23621;50.878;4.584;2023-05-09T13:12:47;22.50;79.10
37782;DHT22;23621;50.878;4.584;2023-05-09T13:15:35;22.50;78.70
37782;DHT22;23621;50.878;4.584;2023-05-09T13:18:22;22.40;78.30
37782;DHT22;23621;50.878;4.584;2023-05-09T13:21:10;22.30;78.50
37782;DHT22;23621;50.878;4.584;2023-05-09T13:23:57;22.30;78.50
37782;DHT22;23621;50.878;4.584;2023-05-09T13:26:45;22.30;78.20
37782;DHT22;23621;50.878;4.584;2023-05-09T13:29:32;22.20;78.20
37782;DHT22;23621;50.878;4.584;2023-05-09T13:32:19;22.10;78.10
37782;DHT22;23621;50.878;4.584;2023-05-09T13:35:07;22.10;78.40
37782;DHT22;23621;50.878;4.584;2023-05-09T13:37:54;22.20;78.60
37782;DHT22;23621;50.878;4.584;2023-05-09T13:40:41;22.30;78.70
37782;DHT22;23621;50.878;4.584;2023-05-09T13:43:28;22.30;78.50
37782;DHT22;23621;50.878;4.584;2023-05-09T13:46:16;22.20;78.50
37782;DHT22;23621;50.878;4.584;2023-05-09T13:49:03;22.20;78.50
37782;DHT22;23621;50.878;4.584;2023-05-09T13:51:50;22.10;78.90
37782;DHT22;23621;50.878;4.584;2023-05-09T13:54:38;22.10;78.60
37782;DHT22;23621;50.878;4.584;2023-05-09T13:57:25;22.10;78.70
37782;DHT22;23621;50.878;4.584;2023-05-09T14:00:13;22.10;78.70
37782;DHT22;23621;50.878;4.584;2023-05-09T14:03:02;22.10;78.90
37782;DHT22;23621;50.878;4.584;2023-05-09T14:05:49;22.20;78.90
37782;DHT22;23621;50.878;4.584;2023-05-09T14:08:37;22.20;79.00
37782;DHT22;23621;50.878;4.584;2023-05-09T14:11:25;22.20;79.10
37782;DHT22;23621;50.878;4.584;2023-05-09T14:14:12;22.30;79.00
37782;DHT22;23621;50.878;4.584;2023-05-09T14:17:00;22.30;78.90
37782;DHT22;23621;50.878;4.584;2023-05-09T14:19:47;22.30;78.60
37782;DHT22;23621;50.878;4.584;2023-05-09T14:22:34;22.30;78.70
37782;DHT22;23621;50.878;4.584;2023-05-09T14:25:21;22.30;78.80
37782;DHT22;23621;50.878;4.584;2023-05-09T14:28:09;22.30;78.70
37782;DHT22;23621;50.878;4.584;2023-05-09T14:30:56;22.20;78.40
37782;DHT22;23621;50.878;4.584;2023-05-09T14:33:43;22.20;78.40
37782;DHT22;23621;50.878;4.584;2023-05-09T14:36:31;22.10;78.60
37782;DHT22;23621;50.878;4.584;2023-05-09T14:39:18;22.10;78.70
37782;DHT22;23621;50.878;4.584;2023-05-09T14:42:07;22.00;78.80
37782;DHT22;23621;50.878;4.584;2023-05-09T14:44:57;22.10;79.00
37782;DHT22;23621;50.878;4.584;2023-05-09T14:47:45;22.10;79.00
37782;DHT22;23621;50.878;4.584;2023-05-09T14:50:32;22.00;79.00
37782;DHT22;23621;50.878;4.584;2023-05-09T14:53:20;22.10;78.70
37782;DHT22;23621;50.878;4.584;2023-05-09T14:56:08;22.00;78.50
37782;DHT22;23621;50.878;4.584;2023-05-09T14:58:57;22.00;78.60
37782;DHT22;23621;50.878;4.584;2023-05-09T15:01:44;22.00;78.90
37782;DHT22;23621;50.878;4.584;2023-05-09T15:04:32;22.00;78.70
37782;DHT22;23621;50.878;4.584;2023-05-09T15:07:19;22.00;78.60
37782;DHT22;23621;50.878;4.584;2023-05-09T15:10:07;22.00;78.60
37782;DHT22;23621;50.878;4.584;2023-05-09T15:12:54;21.90;78.40
37782;DHT22;23621;50.878;4.584;2023-05-09T15:15:42;21.90;78.50
37782;DHT22;23621;50.878;4.584;2023-05-09T15:18:29;21.90;78.50
37782;DHT22;23621;50.878;4.584;2023-05-09T15:21:17;21.90;78.50
37782;DHT22;23621;50.878;4.584;2023-05-09T15:24:04;21.90;78.70
37782;DHT22;23621;50.878;4.584;2023-05-09T15:26:52;22.00;78.70
37782;DHT22;23621;50.878;4.584;2023-05-09T15:29:40;22.00;79.50
37782;DHT22;23621;50.878;4.584;2023-05-09T15:32:27;21.90;78.50
37782;DHT22;23621;50.878;4.584;2023-05-09T15:35:15;21.90;78.60
37782;DHT22;23621;50.878;4.584;2023-05-09T15:38:04;21.90;78.60
37782;DHT22;23621;50.878;4.584;2023-05-09T15:40:51;21.80;78.40
37782;DHT22;23621;50.878;4.584;2023-05-09T15:43:38;21.80;78.50
37782;DHT22;23621;50.878;4.584;2023-05-09T15:46:25;21.80;78.80
37782;DHT22;23621;50.878;4.584;2023-05-09T15:49:13;21.90;79.00
37782;DHT22;23621;50.878;4.584;2023-05-09T15:52:07;21.90;79.00
37782;DHT22;23621;50.878;4.584;2023-05-09T15:54:55;21.90;78.90
37782;DHT22;23621;50.878;4.584;2023-05-09T15:57:42;21.90;78.90
37782;DHT22;23621;50.878;4.584;2023-05-09T16:00:31;21.90;78.90
37782;DHT22;23621;50.878;4.584;2023-05-09T16:03:18;22.00;79.00
37782;DHT22;23621;50.878;4.584;2023-05-09T16:06:06;22.00;78.90
37782;DHT22;23621;50.878;4.584;2023-05-09T16:08:53;21.90;78.80
37782;DHT22;23621;50.878;4.584;2023-05-09T16:11:41;21.90;78.70
37782;DHT22;23621;50.878;4.584;2023-05-09T16:14:28;21.90;78.90
37782;DHT22;23621;50.878;4.584;2023-05-09T16:17:15;21.90;79.00
37782;DHT22;23621;50.878;4.584;2023-05-09T16:20:03;21.90;79.10
37782;DHT22;23621;50.878;4.584;2023-05-09T16:22:50;21.80;79.10
37782;DHT22;23621;50.878;4.584;2023-05-09T16:25:37;21.80;79.20
37782;DHT22;23621;50.878;4.584;2023-05-09T16:28:25;21.80;79.30
37782;DHT22;23621;50.878;4.584;2023-05-09T16:31:13;21.80;79.30
37782;DHT22;23621;50.878;4.584;2023-05-09T16:34:01;21.80;79.30
37782;DHT22;23621;50.878;4.584;2023-05-09T16:36:48;21.80;79.40
37782;DHT22;23621;50.878;4.584;2023-05-09T16:39:36;21.80;79.50
37782;DHT22;23621;50.878;4.584;2023-05-09T16:42:23;21.90;79.60
37782;DHT22;23621;50.878;4.584;2023-05-09T16:45:10;21.90;79.50
37782;DHT22;23621;50.878;4.584;2023-05-09T16:47:57;21.80;79.50
37782;DHT22;23621;50.878;4.584;2023-05-09T16:50:48;21.80;79.60
37782;DHT22;23621;50.878;4.584;2023-05-09T16:53:39;21.80;79.80
37782;DHT22;23621;50.878;4.584;2023-05-09T16:56:27;21.80;79.90
37782;DHT22;23621;50.878;4.584;2023-05-09T16:59:14;21.90;79.90
37782;DHT22;23621;50.878;4.584;2023-05-09T17:02:02;21.90;79.90
37782;DHT22;23621;50.878;4.584;2023-05-09T17:04:50;21.90;79.80
37782;DHT22;23621;50.878;4.584;2023-05-09T17:07:37;21.90;79.70
37782;DHT22;23621;50.878;4.584;2023-05-09T17:10:25;21.90;79.90
37782;DHT22;23621;50.878;4.584;2023-05-09T17:13:12;21.90;80.00
37782;DHT22;23621;50.878;4.584;2023-05-09T17:15:59;21.90;80.00
37782;DHT22;23621;50.878;4.584;2023-05-09T17:18:46;21.80;80.00
37782;DHT22;23621;50.878;4.584;2023-05-09T17:21:34;21.80;80.00
37782;DHT22;23621;50.878;4.584;2023-05-09T17:24:21;21.80;80.00
37782;DHT22;23621;50.878;4.584;2023-05-09T17:27:09;21.70;80.10
37782;DHT22;23621;50.878;4.584;2023-05-09T17:30:01;21.70;80.30
37782;DHT22;23621;50.878;4.584;2023-05-09T17:32:48;21.70;80.30
37782;DHT22;23621;50.878;4.584;2023-05-09T17:35:37;21.80;80.40
37782;DHT22;23621;50.878;4.584;2023-05-09T17:38:24;21.80;80.30
37782;DHT22;23621;50.878;4.584;2023-05-09T17:41:12;21.80;80.40
37782;DHT22;23621;50.878;4.584;2023-05-09T17:43:59;21.80;80.40
37782;DHT22;23621;50.878;4.584;2023-05-09T17:46:47;21.90;80.50
37782;DHT22;23621;50.878;4.584;2023-05-09T17:49:35;21.90;80.40
37782;DHT22;23621;50.878;4.584;2023-05-09T17:52:22;21.90;80.40
37782;DHT22;23621;50.878;4.584;2023-05-09T17:55:10;22.00;80.40